createdAt,value
2022-12-13T00:01:26.287Z,56.50
2022-12-13T00:03:54.660Z,56.60
2022-12-13T00:06:21.493Z,56.50
2022-12-13T00:08:50.546Z,56.30
2022-12-13T00:11:18.051Z,56.20
2022-12-13T00:13:47.861Z,56.40
2022-12-13T00:16:18.010Z,56.50
2022-12-13T00:18:47.755Z,56.40
2022-12-13T00:21:17.790Z,56.40
2022-12-13T00:23:45.571Z,56.20
2022-12-13T00:26:16.664Z,56.30
2022-12-13T00:28:44.410Z,56.40
2022-12-13T00:31:51.651Z,56.40
2022-12-13T00:34:01.184Z,56.10
2022-12-13T00:36:28.123Z,55.80
2022-12-13T00:39:00.906Z,56.00
2022-12-13T00:41:31.091Z,55.80
2022-12-13T00:43:58.570Z,55.70
2022-12-13T00:46:25.417Z,55.70
2022-12-13T00:48:54.542Z,55.70
2022-12-13T00:51:22.085Z,55.50
2022-12-13T00:53:49.091Z,55.40
2022-12-13T00:56:21.273Z,55.30
2022-12-13T00:58:52.350Z,55.30
2022-12-13T01:01:22.048Z,55.30
2022-12-13T01:03:48.860Z,55.30
2022-12-13T01:06:19.070Z,55.20
2022-12-13T01:08:48.599Z,55.40
2022-12-13T01:11:15.832Z,55.30
2022-12-13T01:13:42.694Z,55.20
2022-12-13T01:16:11.135Z,55.30
2022-12-13T01:18:38.655Z,55.90
2022-12-13T01:21:12.863Z,55.20
2022-12-13T01:23:41.257Z,55.30
2022-12-13T01:26:11.679Z,55.30
2022-12-13T01:28:38.726Z,55.10
2022-12-13T01:31:08.845Z,55.60
2022-12-13T01:33:36.678Z,55.50
2022-12-13T01:36:07.335Z,56.60
2022-12-13T01:38:38.031Z,59.40
2022-12-13T01:41:08.905Z,50.00
2022-12-13T01:43:44.831Z,49.90
2022-12-13T01:46:12.924Z,50.00
2022-12-13T01:48:46.264Z,49.90
2022-12-13T01:51:17.554Z,49.90
2022-12-13T01:53:47.252Z,49.90
2022-12-13T01:56:22.624Z,49.90
2022-12-13T01:58:52.226Z,49.80
2022-12-13T02:01:19.214Z,49.90
2022-12-13T02:03:46.255Z,49.80
2022-12-13T02:06:37.159Z,49.70
2022-12-13T02:09:07.073Z,49.80
2022-12-13T02:11:35.936Z,49.70
2022-12-13T02:14:02.756Z,49.60
2022-12-13T02:16:38.488Z,49.60
2022-12-13T02:19:26.526Z,49.70
2022-12-13T02:22:14.663Z,49.70
2022-12-13T02:24:50.241Z,49.60
2022-12-13T02:27:42.846Z,49.70
2022-12-13T02:30:24.475Z,49.50
2022-12-13T02:33:06.042Z,49.50
2022-12-13T02:35:53.585Z,49.50
2022-12-13T02:38:28.917Z,49.50
2022-12-13T02:41:15.865Z,49.50
2022-12-13T02:44:22.397Z,49.40
2022-12-13T02:46:59.214Z,49.40
2022-12-13T02:49:30.066Z,49.40
2022-12-13T02:51:58.008Z,49.40
2022-12-13T02:54:24.886Z,49.30
2022-12-13T02:56:55.596Z,49.30
2022-12-13T02:59:25.586Z,49.30
2022-12-13T03:02:31.555Z,49.90
2022-12-13T03:05:28.461Z,49.30
2022-12-13T03:08:21.782Z,49.30
2022-12-13T03:11:10.683Z,49.30
2022-12-13T03:13:57.735Z,49.30
2022-12-13T03:16:36.711Z,49.40
2022-12-13T03:19:07.304Z,49.30
2022-12-13T03:21:48.253Z,49.30
2022-12-13T03:24:20.325Z,49.20
2022-12-13T03:26:49.376Z,49.20
2022-12-13T03:29:23.639Z,56.20
2022-12-13T03:31:52.885Z,56.50
2022-12-13T03:34:22.540Z,57.00
2022-12-13T03:36:50.892Z,56.80
2022-12-13T03:39:17.892Z,56.40
2022-12-13T03:41:44.763Z,56.60
2022-12-13T03:44:11.468Z,56.40
2022-12-13T03:46:38.292Z,56.30
2022-12-13T03:49:05.276Z,56.50
2022-12-13T03:51:32.034Z,56.30
2022-12-13T03:53:58.760Z,56.30
2022-12-13T03:56:26.296Z,56.30
2022-12-13T03:58:53.117Z,54.90
2022-12-13T04:01:20.085Z,55.50
2022-12-13T04:03:47.310Z,55.50
2022-12-13T04:06:21.926Z,55.90
2022-12-13T04:08:51.393Z,55.80
2022-12-13T04:11:42.595Z,55.70
2022-12-13T04:14:22.139Z,55.60
2022-12-13T04:16:51.083Z,55.50
2022-12-13T04:19:23.014Z,55.50
2022-12-13T04:21:50.592Z,55.30
2022-12-13T04:24:17.358Z,55.10
2022-12-13T04:26:44.115Z,55.30
2022-12-13T04:29:10.867Z,55.40
2022-12-13T04:31:37.628Z,55.40
2022-12-13T04:34:04.795Z,55.30
2022-12-13T04:36:32.868Z,55.40
2022-12-13T04:39:22.812Z,55.20
2022-12-13T04:41:51.738Z,55.30
2022-12-13T04:44:27.847Z,55.30
2022-12-13T04:46:55.919Z,55.30
2022-12-13T04:49:28.970Z,55.10
2022-12-13T04:52:00.580Z,55.20
2022-12-13T04:54:28.854Z,55.20
2022-12-13T04:57:05.193Z,55.20
2022-12-13T04:59:32.431Z,55.20
2022-12-13T05:01:59.250Z,55.10
2022-12-13T05:04:32.114Z,55.10
2022-12-13T05:06:59.747Z,55.10
2022-12-13T05:09:27.094Z,55.00
2022-12-13T05:12:01.196Z,55.00
2022-12-13T05:14:32.434Z,54.90
2022-12-13T05:17:02.924Z,54.50
2022-12-13T05:19:31.385Z,54.60
2022-12-13T05:22:01.336Z,54.80
2022-12-13T05:24:29.582Z,54.80
2022-12-13T05:26:57.100Z,54.90
2022-12-13T05:29:23.837Z,54.90
2022-12-13T05:31:51.042Z,55.00
2022-12-13T05:34:17.842Z,54.90
2022-12-13T05:36:45.019Z,54.90
2022-12-13T05:39:29.339Z,55.00
2022-12-13T05:42:01.477Z,55.00
2022-12-13T05:44:32.531Z,55.00
2022-12-13T05:47:01.936Z,55.00
2022-12-13T05:49:32.324Z,54.90
2022-12-13T05:51:59.972Z,55.00
2022-12-13T05:54:26.777Z,54.90
2022-12-13T05:56:53.563Z,54.20
2022-12-13T05:59:20.319Z,55.00
2022-12-13T06:01:47.065Z,55.20
2022-12-13T06:04:23.113Z,55.40
2022-12-13T06:06:51.358Z,55.50
2022-12-13T06:09:18.706Z,55.50
2022-12-13T06:11:45.530Z,55.40
2022-12-13T06:14:22.638Z,55.50
2022-12-13T06:16:51.472Z,55.30
2022-12-13T06:19:18.711Z,55.70
2022-12-13T06:21:46.580Z,55.40
2022-12-13T06:24:17.737Z,55.10
2022-12-13T06:26:45.067Z,55.00
2022-12-13T06:29:23.104Z,55.50
2022-12-13T06:32:02.500Z,55.00
2022-12-13T06:34:36.144Z,55.00
2022-12-13T06:37:07.458Z,55.20
2022-12-13T06:39:34.865Z,55.40
2022-12-13T06:42:03.747Z,55.30
2022-12-13T06:44:30.987Z,55.60
2022-12-13T06:47:12.076Z,55.60
2022-12-13T06:49:41.545Z,55.70
2022-12-13T06:52:13.420Z,55.70
2022-12-13T06:54:42.154Z,55.80
2022-12-13T06:57:10.045Z,55.90
2022-12-13T06:59:37.551Z,55.80
2022-12-13T07:02:04.479Z,55.80
2022-12-13T07:04:32.434Z,56.00
2022-12-13T07:07:01.593Z,55.90
2022-12-13T07:09:35.437Z,56.10
2022-12-13T07:12:05.071Z,55.90
2022-12-13T07:14:32.063Z,56.00
2022-12-13T07:17:08.502Z,55.90
2022-12-13T07:19:36.060Z,55.90
2022-12-13T07:22:05.983Z,56.10
2022-12-13T07:24:34.483Z,55.40
2022-12-13T07:27:05.416Z,52.50
2022-12-13T07:29:32.164Z,52.20
2022-12-13T07:32:01.133Z,53.30
2022-12-13T07:34:29.966Z,53.80
2022-12-13T07:36:57.177Z,54.10
2022-12-13T07:39:28.465Z,54.10
2022-12-13T07:41:56.613Z,54.50
2022-12-13T07:44:24.210Z,54.60
2022-12-13T07:46:51.096Z,54.90
2022-12-13T07:49:17.897Z,55.00
2022-12-13T07:51:44.609Z,55.00
2022-12-13T07:54:11.383Z,55.10
2022-12-13T07:56:38.148Z,55.30
2022-12-13T07:59:04.922Z,55.20
2022-12-13T08:01:34.709Z,55.10
2022-12-13T08:04:02.500Z,55.20
2022-12-13T08:06:29.232Z,55.30
2022-12-13T08:08:57.341Z,55.30
2022-12-13T08:11:24.098Z,55.40
2022-12-13T08:13:51.919Z,55.60
2022-12-13T08:16:26.759Z,55.40
2022-12-13T08:19:02.129Z,55.60
2022-12-13T08:21:55.875Z,55.60
2022-12-13T08:24:29.413Z,55.60
2022-12-13T08:27:01.376Z,55.70
2022-12-13T08:29:33.215Z,55.90
2022-12-13T08:32:02.148Z,55.80
2022-12-13T08:34:29.422Z,55.40
2022-12-13T08:37:01.725Z,55.30
2022-12-13T08:39:36.819Z,55.40
2022-12-13T08:42:15.227Z,55.50
2022-12-13T08:44:45.639Z,55.60
2022-12-13T08:47:12.910Z,55.60
2022-12-13T08:49:50.708Z,55.70
2022-12-13T08:52:17.939Z,55.80
2022-12-13T08:54:45.217Z,55.80
2022-12-13T08:57:12.943Z,55.80
2022-12-13T08:59:40.183Z,55.90
2022-12-13T09:02:07.515Z,55.90
2022-12-13T09:04:34.307Z,55.80
2022-12-13T09:07:01.847Z,55.80
2022-12-13T09:09:29.619Z,55.90
2022-12-13T09:12:00.055Z,55.80
2022-12-13T09:14:34.160Z,56.00
2022-12-13T09:17:03.159Z,56.00
2022-12-13T09:19:37.445Z,56.00
2022-12-13T09:22:05.631Z,55.90
2022-12-13T09:24:36.760Z,55.90
2022-12-13T09:27:09.843Z,56.00
2022-12-13T09:29:38.420Z,56.00
2022-12-13T09:32:05.523Z,56.00
2022-12-13T09:34:35.117Z,56.10
2022-12-13T09:37:02.535Z,56.00
2022-12-13T09:39:30.252Z,56.10
2022-12-13T09:42:00.977Z,56.00
2022-12-13T09:44:43.589Z,56.00
2022-12-13T09:47:22.881Z,56.10
2022-12-13T09:49:52.631Z,56.00
2022-12-13T09:52:23.845Z,56.20
2022-12-13T09:54:55.602Z,56.00
2022-12-13T09:57:33.542Z,56.10
2022-12-13T10:00:05.200Z,56.10
2022-12-13T10:02:37.654Z,56.10
2022-12-13T10:05:40.093Z,56.00
2022-12-13T10:08:14.783Z,56.20
2022-12-13T10:10:43.594Z,56.00
2022-12-13T10:13:19.849Z,56.00
2022-12-13T10:15:52.133Z,56.00
2022-12-13T10:18:37.694Z,56.00
2022-12-13T10:21:27.489Z,55.80
2022-12-13T10:26:44.251Z,55.90
2022-12-13T10:29:11.800Z,56.00
2022-12-13T10:31:50.518Z,55.90
2022-12-13T10:34:29.603Z,55.90
2022-12-13T10:36:59.439Z,55.80
2022-12-13T10:39:44.008Z,55.90
2022-12-13T10:42:22.599Z,55.90
2022-12-13T10:45:15.041Z,55.90
2022-12-13T10:47:48.597Z,55.90
2022-12-13T10:50:28.268Z,55.90
2022-12-13T10:52:58.235Z,55.90
2022-12-13T10:55:35.218Z,55.90
2022-12-13T10:58:07.564Z,55.80
2022-12-13T11:00:41.510Z,56.00
2022-12-13T11:03:10.649Z,56.00
2022-12-13T11:05:40.876Z,55.90
2022-12-13T11:08:20.446Z,55.90
2022-12-13T11:10:59.055Z,56.00
2022-12-13T11:13:31.273Z,56.10
2022-12-13T11:15:58.688Z,56.00
2022-12-13T11:18:28.189Z,56.00
2022-12-13T11:20:58.985Z,56.00
2022-12-13T11:23:33.989Z,55.90
2022-12-13T11:26:24.290Z,55.90
2022-12-13T11:29:12.904Z,55.90
2022-12-13T11:32:01.865Z,56.00
2022-12-13T11:34:32.752Z,55.90
2022-12-13T11:37:06.176Z,55.90
2022-12-13T11:39:41.018Z,55.90
2022-12-13T11:42:35.998Z,56.00
2022-12-13T11:45:23.013Z,56.00
2022-12-13T11:47:58.145Z,55.90
2022-12-13T11:50:37.125Z,56.00
2022-12-13T11:53:19.549Z,56.00
2022-12-13T11:56:26.093Z,56.00
2022-12-13T11:59:24.239Z,56.00
2022-12-13T12:02:05.212Z,55.90
2022-12-13T12:04:58.085Z,56.00
2022-12-13T12:07:58.354Z,56.00
2022-12-13T12:10:40.036Z,56.60
2022-12-13T12:13:50.852Z,49.50
2022-12-13T12:16:45.189Z,49.50
2022-12-13T12:19:14.631Z,49.50
2022-12-13T12:24:57.931Z,49.50
2022-12-13T12:28:02.516Z,49.60
2022-12-13T12:31:10.646Z,49.50
2022-12-13T12:33:43.364Z,49.50
2022-12-13T12:36:15.866Z,49.60
2022-12-13T12:38:48.865Z,49.60
2022-12-13T12:41:45.637Z,49.60
2022-12-13T12:44:34.759Z,49.60
2022-12-13T12:48:07.304Z,49.60
2022-12-13T12:50:42.903Z,49.70
2022-12-13T12:53:36.602Z,49.70
2022-12-13T12:56:42.975Z,49.70
2022-12-13T12:59:51.059Z,49.70
2022-12-13T13:02:25.793Z,49.60
2022-12-13T13:05:02.054Z,49.60
2022-12-13T13:07:51.426Z,49.60
2022-12-13T13:10:26.124Z,49.70
2022-12-13T13:13:12.187Z,49.50
2022-12-13T13:15:39.983Z,49.50
2022-12-13T13:18:45.431Z,49.60
2022-12-13T13:21:24.157Z,49.60
2022-12-13T13:24:08.847Z,49.50
2022-12-13T13:26:44.811Z,49.50
2022-12-13T13:29:27.282Z,49.50
2022-12-13T13:32:12.372Z,49.50
2022-12-13T13:35:15.699Z,49.40
2022-12-13T13:37:48.130Z,49.40
2022-12-13T13:40:30.381Z,49.20
2022-12-13T13:43:10.336Z,49.30
2022-12-13T13:45:52.213Z,49.90
2022-12-13T13:48:19.163Z,49.30
2022-12-13T13:51:23.778Z,49.30
2022-12-13T13:54:25.832Z,49.30
2022-12-13T13:58:07.662Z,49.20
2022-12-13T14:00:46.279Z,49.30
2022-12-13T14:03:47.717Z,49.40
2022-12-13T14:06:34.126Z,49.20
2022-12-13T14:09:16.523Z,49.20
2022-12-13T14:12:01.905Z,49.20
2022-12-13T14:14:38.441Z,49.20
2022-12-13T14:17:40.643Z,49.20
2022-12-13T14:20:38.472Z,49.20
2022-12-13T14:23:05.203Z,49.20
2022-12-13T14:25:40.351Z,49.20
2022-12-13T14:28:10.610Z,49.30
2022-12-13T14:30:43.499Z,49.20
2022-12-13T14:33:26.980Z,49.20
2022-12-13T14:35:57.544Z,49.20
2022-12-13T14:38:27.467Z,49.20
2022-12-13T14:40:58.203Z,49.20
2022-12-13T14:43:28.618Z,49.80
2022-12-13T14:46:00.197Z,49.10
2022-12-13T14:48:35.815Z,49.20
2022-12-13T14:51:03.374Z,49.20
2022-12-13T14:53:39.238Z,49.20
2022-12-13T14:56:09.845Z,49.20
2022-12-13T14:58:38.165Z,49.20
2022-12-13T15:01:06.313Z,49.20
2022-12-13T15:03:35.125Z,49.20
2022-12-13T15:06:04.240Z,49.20
2022-12-13T15:08:37.653Z,49.20
2022-12-13T15:11:09.924Z,49.20
2022-12-13T15:13:46.788Z,49.20
2022-12-13T15:16:26.701Z,49.30
2022-12-13T15:19:12.371Z,49.20
2022-12-13T15:21:39.145Z,49.20
2022-12-13T15:24:07.336Z,49.20
2022-12-13T15:26:35.552Z,49.30
2022-12-13T15:29:10.428Z,49.30
2022-12-13T15:31:38.642Z,49.70
2022-12-13T15:34:28.639Z,49.10
2022-12-13T15:36:58.748Z,49.00
2022-12-13T15:39:26.675Z,49.10
2022-12-13T15:41:55.930Z,49.10
2022-12-13T15:44:34.167Z,49.10
2022-12-13T15:47:28.103Z,49.10
2022-12-13T15:50:06.288Z,49.10
2022-12-13T15:52:41.255Z,49.10
2022-12-13T15:55:11.405Z,49.10
2022-12-13T15:57:58.638Z,49.10
2022-12-13T16:00:32.044Z,49.10
2022-12-13T16:03:08.902Z,49.00
2022-12-13T16:05:40.298Z,49.10
2022-12-13T16:08:19.240Z,49.00
2022-12-13T16:10:50.682Z,49.00
2022-12-13T16:13:29.207Z,49.00
2022-12-13T16:16:27.269Z,49.00
2022-12-13T16:19:01.571Z,49.00
2022-12-13T16:21:28.888Z,49.00
2022-12-13T16:23:55.669Z,49.00
2022-12-13T16:26:28.137Z,49.00
2022-12-13T16:28:58.563Z,48.90
2022-12-13T16:31:35.485Z,48.80
2022-12-13T16:34:07.030Z,48.50
2022-12-13T16:36:34.119Z,46.80
2022-12-13T16:39:00.880Z,47.00
2022-12-13T16:41:28.035Z,47.40
2022-12-13T16:44:06.963Z,47.80
2022-12-13T16:47:12.088Z,48.20
2022-12-13T16:49:30.525Z,48.60
2022-12-13T16:51:57.904Z,48.60
2022-12-13T16:54:25.967Z,48.60
2022-12-13T16:56:53.940Z,49.30
2022-12-13T16:59:22.570Z,48.60
2022-12-13T17:01:53.218Z,48.60
2022-12-13T17:04:22.784Z,48.40
2022-12-13T17:06:50.657Z,48.40
2022-12-13T17:09:18.622Z,48.50
2022-12-13T17:11:45.683Z,48.40
2022-12-13T17:14:12.523Z,48.40
2022-12-13T17:16:39.852Z,48.40
2022-12-13T17:19:07.128Z,48.20
2022-12-13T17:21:34.658Z,48.20
2022-12-13T17:24:02.943Z,48.40
2022-12-13T17:26:29.950Z,48.60
2022-12-13T17:28:57.142Z,48.60
2022-12-13T17:31:25.748Z,48.70
2022-12-13T17:33:57.033Z,48.70
2022-12-13T17:36:23.951Z,48.80
2022-12-13T17:38:50.954Z,48.90
2022-12-13T17:41:18.280Z,48.90
2022-12-13T17:43:45.436Z,48.90
2022-12-13T17:46:15.033Z,49.00
2022-12-13T17:48:43.192Z,49.20
2022-12-13T17:51:11.115Z,49.30
2022-12-13T17:53:42.576Z,49.40
2022-12-13T17:56:18.105Z,49.40
2022-12-13T17:58:45.013Z,49.40
2022-12-13T18:01:18.342Z,49.60
2022-12-13T18:03:47.817Z,49.60
2022-12-13T18:06:15.106Z,49.70
2022-12-13T18:08:44.851Z,49.90
2022-12-13T18:11:32.495Z,49.80
2022-12-13T18:14:02.452Z,49.70
2022-12-13T18:16:36.289Z,49.90
2022-12-13T18:19:06.653Z,50.00
2022-12-13T18:21:35.340Z,49.80
2022-12-13T18:24:02.285Z,49.90
2022-12-13T18:26:29.654Z,49.80
2022-12-13T18:28:56.454Z,50.00
2022-12-13T18:31:25.261Z,50.50
2022-12-13T18:33:54.006Z,49.90
2022-12-13T18:36:24.027Z,49.90
2022-12-13T18:38:51.418Z,49.90
2022-12-13T18:41:21.138Z,49.90
2022-12-13T18:43:49.188Z,49.80
2022-12-13T18:46:17.564Z,49.90
2022-12-13T18:48:45.669Z,50.00
2022-12-13T18:51:12.909Z,49.90
2022-12-13T18:53:40.331Z,49.90
2022-12-13T18:56:16.176Z,49.80
2022-12-13T18:58:46.293Z,49.90
2022-12-13T19:01:13.918Z,49.90
2022-12-13T19:03:41.847Z,50.00
2022-12-13T19:06:09.203Z,49.90
2022-12-13T19:08:36.563Z,50.00
2022-12-13T19:11:04.702Z,50.00
2022-12-13T19:13:32.734Z,49.90
2022-12-13T19:16:05.185Z,49.90
2022-12-13T19:18:32.249Z,50.00
2022-12-13T19:20:59.835Z,49.90
2022-12-13T19:23:27.425Z,50.00
2022-12-13T19:25:54.981Z,50.00
2022-12-13T19:28:21.762Z,50.00
2022-12-13T19:30:51.523Z,50.00
2022-12-13T19:33:18.484Z,50.00
2022-12-13T19:35:46.919Z,49.90
2022-12-13T19:38:16.647Z,49.90
2022-12-13T19:40:44.024Z,49.90
2022-12-13T19:43:12.149Z,50.00
2022-12-13T19:45:38.824Z,49.90
2022-12-13T19:48:05.680Z,50.00
2022-12-13T19:50:32.609Z,49.90
2022-12-13T19:52:59.355Z,49.80
2022-12-13T19:55:26.162Z,49.90
2022-12-13T19:57:53.014Z,49.80
2022-12-13T20:00:19.892Z,49.90
2022-12-13T20:02:46.850Z,49.90
2022-12-13T20:05:13.740Z,49.90
2022-12-13T20:07:40.858Z,49.90
2022-12-13T20:10:08.053Z,49.90
2022-12-13T20:12:40.438Z,49.90
2022-12-13T20:15:08.384Z,49.90
2022-12-13T20:17:35.677Z,49.90
2022-12-13T20:20:03.910Z,50.00
2022-12-13T20:22:31.408Z,49.90
2022-12-13T20:24:58.579Z,49.90
2022-12-13T20:27:26.443Z,49.90
2022-12-13T20:29:53.545Z,49.90
2022-12-13T20:32:21.071Z,49.80
2022-12-13T20:34:54.379Z,49.80
2022-12-13T20:37:22.206Z,49.80
2022-12-13T20:39:49.614Z,49.70
2022-12-13T20:42:16.594Z,49.70
2022-12-13T20:44:43.309Z,50.00
2022-12-13T20:47:12.469Z,49.70
2022-12-13T20:49:40.167Z,49.60
2022-12-13T20:52:06.940Z,49.70
2022-12-13T20:54:33.835Z,49.80
2022-12-13T20:57:01.182Z,49.70
2022-12-13T20:59:27.978Z,49.70
2022-12-13T21:01:54.775Z,49.70
2022-12-13T21:04:21.522Z,49.70
2022-12-13T21:06:48.871Z,49.70
2022-12-13T21:09:16.261Z,49.70
2022-12-13T21:11:45.951Z,49.70
2022-12-13T21:14:22.263Z,49.70
2022-12-13T21:16:49.940Z,49.70
2022-12-13T21:19:22.758Z,49.60
2022-12-13T21:21:50.982Z,49.60
2022-12-13T21:24:18.172Z,49.60
2022-12-13T21:26:45.234Z,49.60
2022-12-13T21:29:13.201Z,49.50
2022-12-13T21:31:43.039Z,49.50
2022-12-13T21:34:11.289Z,49.50
2022-12-13T21:36:42.574Z,49.40
2022-12-13T21:39:18.069Z,49.50
2022-12-13T21:41:45.699Z,49.40
2022-12-13T21:44:17.300Z,49.50
2022-12-13T21:47:11.305Z,49.40
2022-12-13T21:49:31.592Z,49.40
2022-12-13T21:51:58.343Z,49.30
2022-12-13T21:54:25.086Z,49.30
2022-12-13T21:57:10.387Z,49.30
2022-12-13T21:59:37.113Z,49.20
2022-12-13T22:02:16.453Z,49.20
2022-12-13T22:04:52.551Z,49.00
2022-12-13T22:07:27.132Z,49.00
2022-12-13T22:09:55.434Z,49.00
2022-12-13T22:12:35.470Z,49.00
2022-12-13T22:15:05.125Z,49.00
2022-12-13T22:17:35.768Z,49.00
2022-12-13T22:20:05.832Z,48.90
2022-12-13T22:22:32.816Z,48.90
2022-12-13T22:25:00.065Z,48.90
2022-12-13T22:27:27.316Z,48.90
2022-12-13T22:29:59.654Z,48.90
2022-12-13T22:32:28.459Z,48.90
2022-12-13T22:35:02.242Z,48.90
2022-12-13T22:37:29.552Z,48.90
2022-12-13T22:39:56.309Z,48.80
2022-12-13T22:42:23.539Z,48.80
2022-12-13T22:44:50.954Z,48.80
2022-12-13T22:47:18.150Z,48.80
2022-12-13T22:49:44.905Z,48.70
2022-12-13T22:52:15.967Z,48.80
2022-12-13T22:54:42.680Z,48.80
2022-12-13T22:57:09.440Z,48.80
2022-12-13T22:59:38.358Z,48.90
2022-12-13T23:02:05.195Z,48.90
2022-12-13T23:04:32.136Z,48.90
2022-12-13T23:06:59.012Z,48.90
2022-12-13T23:09:28.217Z,48.90
2022-12-13T23:12:24.479Z,48.90
2022-12-13T23:14:51.530Z,48.90
2022-12-13T23:17:18.485Z,48.90
2022-12-13T23:19:50.608Z,48.90
2022-12-13T23:22:20.176Z,48.90
2022-12-13T23:24:46.868Z,48.80
2022-12-13T23:27:13.633Z,48.90
2022-12-13T23:29:40.500Z,48.80
2022-12-13T23:32:07.291Z,48.80
2022-12-13T23:34:34.160Z,48.90
2022-12-13T23:37:00.888Z,48.90
2022-12-13T23:39:27.924Z,48.80
2022-12-13T23:41:54.677Z,48.90
2022-12-13T23:44:21.539Z,48.80
2022-12-13T23:46:48.952Z,48.90
2022-12-13T23:49:16.678Z,48.90
2022-12-13T23:51:43.531Z,48.90
2022-12-13T23:54:14.646Z,48.90
2022-12-13T23:56:41.648Z,48.90
2022-12-13T23:59:08.648Z,49.00
